sensor_id;sensor_type;location;lat;lon;timestamp;pressure;altitude;pressure_sealevel;temperature;humidity
39435;BME280;66825;51.880;-0.518;2024-02-26T00:01:26;98915.38;;;13.61;44.18
39435;BME280;66825;51.880;-0.518;2024-02-26T00:03:51;98932.41;;;13.61;43.70
39435;BME280;66825;51.880;-0.518;2024-02-26T00:06:17;98839.09;;;13.05;43.15
39435;BME280;66825;51.880;-0.518;2024-02-26T00:08:44;98929.53;;;13.58;44.06
39435;BME280;66825;51.880;-0.518;2024-02-26T00:11:09;98922.44;;;13.48;44.28
39435;BME280;66825;51.880;-0.518;2024-02-26T00:13:35;98943.41;;;13.65;43.83
39435;BME280;66825;51.880;-0.518;2024-02-26T00:16:02;98946.91;;;13.65;43.94
39435;BME280;66825;51.880;-0.518;2024-02-26T00:18:27;98922.94;;;13.50;43.77
39435;BME280;66825;51.880;-0.518;2024-02-26T00:20:53;98924.69;;;13.46;44.03
39435;BME280;66825;51.880;-0.518;2024-02-26T00:23:18;98932.16;;;13.49;43.69
39435;BME280;66825;51.880;-0.518;2024-02-26T00:25:43;98968.69;;;13.60;43.82
39435;BME280;66825;51.880;-0.518;2024-02-26T00:28:10;98955.00;;;13.57;43.90
39435;BME280;66825;51.880;-0.518;2024-02-26T00:30:36;98900.00;;;13.25;44.18
39435;BME280;66825;51.880;-0.518;2024-02-26T00:33:01;98966.97;;;13.64;43.96
39435;BME280;66825;51.880;-0.518;2024-02-26T00:35:27;98927.28;;;13.37;43.57
39435;BME280;66825;51.880;-0.518;2024-02-26T00:37:52;98983.19;;;13.64;43.52
39435;BME280;66825;51.880;-0.518;2024-02-26T00:40:18;98968.34;;;13.53;44.01
39435;BME280;66825;51.880;-0.518;2024-02-26T00:42:44;98984.00;;;13.65;43.92
39435;BME280;66825;51.880;-0.518;2024-02-26T00:45:14;98991.31;;;13.64;43.48
39435;BME280;66825;51.880;-0.518;2024-02-26T00:47:42;98997.84;;;13.63;43.88
39435;BME280;66825;51.880;-0.518;2024-02-26T00:50:08;99002.47;;;13.63;44.07
39435;BME280;66825;51.880;-0.518;2024-02-26T00:52:34;98883.53;;;12.90;43.53
39435;BME280;66825;51.880;-0.518;2024-02-26T00:54:59;99000.53;;;13.63;43.65
39435;BME280;66825;51.880;-0.518;2024-02-26T00:57:25;99009.47;;;13.64;43.71
39435;BME280;66825;51.880;-0.518;2024-02-26T00:59:50;98967.19;;;13.31;43.98
39435;BME280;66825;51.880;-0.518;2024-02-26T01:02:16;98895.13;;;12.90;43.89
39435;BME280;66825;51.880;-0.518;2024-02-26T01:04:41;99005.59;;;13.56;44.09
39435;BME280;66825;51.880;-0.518;2024-02-26T01:07:07;98930.75;;;13.06;43.50
39435;BME280;66825;51.880;-0.518;2024-02-26T01:09:32;99007.81;;;13.54;43.68
39435;BME280;66825;51.880;-0.518;2024-02-26T01:11:58;99024.09;;;13.63;43.89
39435;BME280;66825;51.880;-0.518;2024-02-26T01:14:23;99045.75;;;13.63;43.87
39435;BME280;66825;51.880;-0.518;2024-02-26T01:16:49;99004.56;;;13.43;43.83
39435;BME280;66825;51.880;-0.518;2024-02-26T01:19:14;99038.06;;;13.56;43.72
39435;BME280;66825;51.880;-0.518;2024-02-26T01:21:40;99037.66;;;13.63;43.89
39435;BME280;66825;51.880;-0.518;2024-02-26T01:24:06;99043.84;;;13.63;43.52
39435;BME280;66825;51.880;-0.518;2024-02-26T01:26:32;99051.97;;;13.63;44.00
39435;BME280;66825;51.880;-0.518;2024-02-26T01:28:57;99056.91;;;13.61;43.67
39435;BME280;66825;51.880;-0.518;2024-02-26T01:31:23;98941.22;;;12.85;43.63
39435;BME280;66825;51.880;-0.518;2024-02-26T01:33:48;99020.28;;;13.27;44.19
39435;BME280;66825;51.880;-0.518;2024-02-26T01:36:14;98969.41;;;12.93;44.09
39435;BME280;66825;51.880;-0.518;2024-02-26T01:38:39;99070.91;;;13.63;43.73
39435;BME280;66825;51.880;-0.518;2024-02-26T01:41:04;99079.94;;;13.59;43.99
39435;BME280;66825;51.880;-0.518;2024-02-26T01:43:30;99097.50;;;13.61;44.05
39435;BME280;66825;51.880;-0.518;2024-02-26T01:45:55;99007.94;;;13.12;43.78
39435;BME280;66825;51.880;-0.518;2024-02-26T01:48:21;98983.44;;;12.95;44.02
39435;BME280;66825;51.880;-0.518;2024-02-26T01:50:46;99046.88;;;13.25;43.54
39435;BME280;66825;51.880;-0.518;2024-02-26T01:53:12;99101.00;;;13.62;43.61
39435;BME280;66825;51.880;-0.518;2024-02-26T01:55:38;99125.34;;;13.62;44.27
39435;BME280;66825;51.880;-0.518;2024-02-26T01:58:04;99097.53;;;13.47;44.11
39435;BME280;66825;51.880;-0.518;2024-02-26T02:00:30;99116.44;;;13.61;43.76
39435;BME280;66825;51.880;-0.518;2024-02-26T02:02:56;99115.94;;;13.59;43.99
39435;BME280;66825;51.880;-0.518;2024-02-26T02:05:22;99124.56;;;13.61;43.87
39435;BME280;66825;51.880;-0.518;2024-02-26T02:07:48;99002.88;;;12.83;43.60
39435;BME280;66825;51.880;-0.518;2024-02-26T02:10:15;99129.97;;;13.61;43.87
39435;BME280;66825;51.880;-0.518;2024-02-26T02:12:40;99136.16;;;13.62;43.71
39435;BME280;66825;51.880;-0.518;2024-02-26T02:15:06;99139.78;;;13.57;43.66
39435;BME280;66825;51.880;-0.518;2024-02-26T02:17:32;99016.09;;;12.84;43.74
39435;BME280;66825;51.880;-0.518;2024-02-26T02:19:58;99142.69;;;13.61;44.04
39435;BME280;66825;51.880;-0.518;2024-02-26T02:22:23;99155.44;;;13.60;43.73
39435;BME280;66825;51.880;-0.518;2024-02-26T02:24:50;99146.94;;;13.53;43.68
39435;BME280;66825;51.880;-0.518;2024-02-26T02:27:15;99060.34;;;13.02;43.94
39435;BME280;66825;51.880;-0.518;2024-02-26T02:29:41;99157.03;;;13.61;43.43
39435;BME280;66825;51.880;-0.518;2024-02-26T02:32:08;99143.50;;;13.61;43.70
39435;BME280;66825;51.880;-0.518;2024-02-26T02:34:34;99046.75;;;12.80;43.97
39435;BME280;66825;51.880;-0.518;2024-02-26T02:36:59;99074.34;;;13.05;44.09
39435;BME280;66825;51.880;-0.518;2024-02-26T02:39:25;99165.16;;;13.61;43.92
39435;BME280;66825;51.880;-0.518;2024-02-26T02:41:50;99078.13;;;13.03;44.31
39435;BME280;66825;51.880;-0.518;2024-02-26T02:44:16;99177.88;;;13.61;44.14
39435;BME280;66825;51.880;-0.518;2024-02-26T02:46:42;99175.47;;;13.59;43.80
39435;BME280;66825;51.880;-0.518;2024-02-26T02:49:09;99125.50;;;13.29;43.97
39435;BME280;66825;51.880;-0.518;2024-02-26T02:51:35;99166.25;;;13.60;43.68
39435;BME280;66825;51.880;-0.518;2024-02-26T02:54:01;99088.16;;;12.89;43.93
39435;BME280;66825;51.880;-0.518;2024-02-26T02:56:26;99192.50;;;13.60;43.88
39435;BME280;66825;51.880;-0.518;2024-02-26T02:58:52;99121.59;;;13.07;43.83
39435;BME280;66825;51.880;-0.518;2024-02-26T03:01:17;99162.06;;;13.40;43.63
39435;BME280;66825;51.880;-0.518;2024-02-26T03:03:43;99185.53;;;13.45;44.00
39435;BME280;66825;51.880;-0.518;2024-02-26T03:06:08;99193.22;;;13.52;43.91
39435;BME280;66825;51.880;-0.518;2024-02-26T03:08:34;99201.72;;;13.59;43.52
39435;BME280;66825;51.880;-0.518;2024-02-26T03:11:03;99112.81;;;13.01;44.34
39435;BME280;66825;51.880;-0.518;2024-02-26T03:13:29;99205.38;;;13.54;43.83
39435;BME280;66825;51.880;-0.518;2024-02-26T03:15:54;99217.56;;;13.52;43.54
39435;BME280;66825;51.880;-0.518;2024-02-26T03:18:20;99219.09;;;13.58;44.39
39435;BME280;66825;51.880;-0.518;2024-02-26T03:20:45;99152.47;;;13.06;43.73
39435;BME280;66825;51.880;-0.518;2024-02-26T03:23:11;99225.41;;;13.53;44.12
39435;BME280;66825;51.880;-0.518;2024-02-26T03:25:41;99226.63;;;13.47;44.07
39435;BME280;66825;51.880;-0.518;2024-02-26T03:28:06;99115.78;;;12.72;43.67
39435;BME280;66825;51.880;-0.518;2024-02-26T03:30:33;99263.97;;;13.59;43.74
39435;BME280;66825;51.880;-0.518;2024-02-26T03:32:58;99175.19;;;13.05;44.22
39435;BME280;66825;51.880;-0.518;2024-02-26T03:35:24;99271.28;;;13.58;43.71
39435;BME280;66825;51.880;-0.518;2024-02-26T03:37:49;99265.09;;;13.58;43.55
39435;BME280;66825;51.880;-0.518;2024-02-26T03:40:17;99275.91;;;13.58;44.05
39435;BME280;66825;51.880;-0.518;2024-02-26T03:42:44;99162.06;;;12.84;43.85
39435;BME280;66825;51.880;-0.518;2024-02-26T03:45:10;99268.25;;;13.32;43.75
39435;BME280;66825;51.880;-0.518;2024-02-26T03:47:37;99292.75;;;13.55;43.49
39435;BME280;66825;51.880;-0.518;2024-02-26T03:50:04;99289.31;;;13.49;43.90
39435;BME280;66825;51.880;-0.518;2024-02-26T03:52:30;99312.69;;;13.59;43.61
39435;BME280;66825;51.880;-0.518;2024-02-26T03:54:55;99314.59;;;13.58;43.86
39435;BME280;66825;51.880;-0.518;2024-02-26T03:57:21;99234.16;;;13.03;43.85
39435;BME280;66825;51.880;-0.518;2024-02-26T03:59:46;99324.13;;;13.56;43.83
39435;BME280;66825;51.880;-0.518;2024-02-26T04:02:11;99336.03;;;13.55;43.49
39435;BME280;66825;51.880;-0.518;2024-02-26T04:04:37;99227.16;;;12.88;44.43
39435;BME280;66825;51.880;-0.518;2024-02-26T04:07:03;99347.38;;;13.57;43.83
39435;BME280;66825;51.880;-0.518;2024-02-26T04:09:31;99246.34;;;12.86;43.53
39435;BME280;66825;51.880;-0.518;2024-02-26T04:11:56;99263.41;;;13.01;43.99
39435;BME280;66825;51.880;-0.518;2024-02-26T04:14:22;99355.50;;;13.57;44.12
39435;BME280;66825;51.880;-0.518;2024-02-26T04:16:47;99370.63;;;13.58;43.88
39435;BME280;66825;51.880;-0.518;2024-02-26T04:19:16;99345.16;;;13.45;43.93
39435;BME280;66825;51.880;-0.518;2024-02-26T04:21:42;99369.81;;;13.57;43.98
39435;BME280;66825;51.880;-0.518;2024-02-26T04:24:08;99371.53;;;13.53;44.28
39435;BME280;66825;51.880;-0.518;2024-02-26T04:26:34;99387.97;;;13.57;43.82
39435;BME280;66825;51.880;-0.518;2024-02-26T04:28:59;99390.69;;;13.57;44.31
39435;BME280;66825;51.880;-0.518;2024-02-26T04:31:25;99286.78;;;12.78;43.57
39435;BME280;66825;51.880;-0.518;2024-02-26T04:33:51;99415.63;;;13.54;44.22
39435;BME280;66825;51.880;-0.518;2024-02-26T04:36:16;99322.69;;;12.97;44.24
39435;BME280;66825;51.880;-0.518;2024-02-26T04:38:43;99326.25;;;12.93;43.69
39435;BME280;66825;51.880;-0.518;2024-02-26T04:41:08;99342.22;;;12.94;43.72
39435;BME280;66825;51.880;-0.518;2024-02-26T04:43:34;99432.16;;;13.52;43.61
39435;BME280;66825;51.880;-0.518;2024-02-26T04:45:59;99326.88;;;12.90;44.24
39435;BME280;66825;51.880;-0.518;2024-02-26T04:48:27;99448.59;;;13.56;43.76
39435;BME280;66825;51.880;-0.518;2024-02-26T04:50:52;99445.91;;;13.56;44.19
39435;BME280;66825;51.880;-0.518;2024-02-26T04:53:18;99445.69;;;13.52;43.84
39435;BME280;66825;51.880;-0.518;2024-02-26T04:55:43;99462.13;;;13.56;43.75
39435;BME280;66825;51.880;-0.518;2024-02-26T04:58:09;99471.06;;;13.56;43.60
39435;BME280;66825;51.880;-0.518;2024-02-26T05:00:35;99462.13;;;13.56;44.20
39435;BME280;66825;51.880;-0.518;2024-02-26T05:03:01;99367.00;;;12.82;44.18
39435;BME280;66825;51.880;-0.518;2024-02-26T05:05:26;99349.09;;;12.67;43.86
39435;BME280;66825;51.880;-0.518;2024-02-26T05:07:52;99506.84;;;13.53;43.51
39435;BME280;66825;51.880;-0.518;2024-02-26T05:10:18;99416.22;;;12.98;43.82
39435;BME280;66825;51.880;-0.518;2024-02-26T05:12:43;99504.94;;;13.54;43.83
39435;BME280;66825;51.880;-0.518;2024-02-26T05:15:09;99508.16;;;13.56;44.20
39435;BME280;66825;51.880;-0.518;2024-02-26T05:17:35;99506.53;;;13.55;44.09
39435;BME280;66825;51.880;-0.518;2024-02-26T05:20:01;99514.75;;;13.49;43.45
39435;BME280;66825;51.880;-0.518;2024-02-26T05:22:26;99429.72;;;12.98;43.52
39435;BME280;66825;51.880;-0.518;2024-02-26T05:24:51;99518.16;;;13.55;43.70
39435;BME280;66825;51.880;-0.518;2024-02-26T05:27:17;99536.31;;;13.55;43.94
39435;BME280;66825;51.880;-0.518;2024-02-26T05:29:43;99520.16;;;13.49;43.95
39435;BME280;66825;51.880;-0.518;2024-02-26T05:32:08;99434.78;;;12.86;43.93
39435;BME280;66825;51.880;-0.518;2024-02-26T05:34:34;99553.34;;;13.55;44.18
39435;BME280;66825;51.880;-0.518;2024-02-26T05:36:59;99555.03;;;13.51;43.55
39435;BME280;66825;51.880;-0.518;2024-02-26T05:39:24;99568.00;;;13.54;43.70
39435;BME280;66825;51.880;-0.518;2024-02-26T05:41:50;99565.66;;;13.47;43.86
39435;BME280;66825;51.880;-0.518;2024-02-26T05:44:15;99578.16;;;13.43;43.91
39435;BME280;66825;51.880;-0.518;2024-02-26T05:46:41;99589.66;;;13.54;44.50
39435;BME280;66825;51.880;-0.518;2024-02-26T05:49:07;99584.22;;;13.54;43.62
39435;BME280;66825;51.880;-0.518;2024-02-26T05:51:32;99599.66;;;13.54;43.68
39435;BME280;66825;51.880;-0.518;2024-02-26T05:53:58;99596.16;;;13.53;43.90
39435;BME280;66825;51.880;-0.518;2024-02-26T05:56:23;99600.47;;;13.54;43.60
39435;BME280;66825;51.880;-0.518;2024-02-26T05:58:49;99574.47;;;13.34;43.71
39435;BME280;66825;51.880;-0.518;2024-02-26T06:01:16;99528.13;;;13.02;44.00
39435;BME280;66825;51.880;-0.518;2024-02-26T06:03:42;99507.63;;;12.96;43.85
39435;BME280;66825;51.880;-0.518;2024-02-26T06:06:08;99521.81;;;12.88;44.16
39435;BME280;66825;51.880;-0.518;2024-02-26T06:08:33;99617.81;;;13.53;43.70
39435;BME280;66825;51.880;-0.518;2024-02-26T06:10:58;99610.94;;;13.37;43.75
39435;BME280;66825;51.880;-0.518;2024-02-26T06:13:25;99613.56;;;13.47;44.32
39435;BME280;66825;51.880;-0.518;2024-02-26T06:15:50;99600.00;;;13.28;43.53
39435;BME280;66825;51.880;-0.518;2024-02-26T06:18:16;99642.16;;;13.53;43.86
39435;BME280;66825;51.880;-0.518;2024-02-26T06:20:41;99647.56;;;13.53;43.80
39435;BME280;66825;51.880;-0.518;2024-02-26T06:23:07;99644.34;;;13.51;43.55
39435;BME280;66825;51.880;-0.518;2024-02-26T06:25:32;99651.38;;;13.52;43.79
39435;BME280;66825;51.880;-0.518;2024-02-26T06:27:58;99664.91;;;13.52;43.87
39435;BME280;66825;51.880;-0.518;2024-02-26T06:30:23;99668.19;;;13.49;43.50
39435;BME280;66825;51.880;-0.518;2024-02-26T06:32:49;99673.81;;;13.53;44.35
39435;BME280;66825;51.880;-0.518;2024-02-26T06:35:14;99659.13;;;13.34;43.92
39435;BME280;66825;51.880;-0.518;2024-02-26T06:37:40;99674.69;;;13.48;43.87
39435;BME280;66825;51.880;-0.518;2024-02-26T06:40:06;99660.44;;;13.42;43.80
39435;BME280;66825;51.880;-0.518;2024-02-26T06:42:32;99682.31;;;13.46;43.65
39435;BME280;66825;51.880;-0.518;2024-02-26T06:44:58;99658.19;;;13.25;43.69
39435;BME280;66825;51.880;-0.518;2024-02-26T06:47:23;99598.09;;;12.85;43.90
39435;BME280;66825;51.880;-0.518;2024-02-26T06:49:49;99621.50;;;12.95;43.72
39435;BME280;66825;51.880;-0.518;2024-02-26T06:52:14;99713.31;;;13.54;43.90
39435;BME280;66825;51.880;-0.518;2024-02-26T06:54:40;99611.03;;;12.88;43.42
39435;BME280;66825;51.880;-0.518;2024-02-26T06:57:05;99640.13;;;12.96;44.13
39435;BME280;66825;51.880;-0.518;2024-02-26T06:59:30;99744.84;;;13.63;43.93
39435;BME280;66825;51.880;-0.518;2024-02-26T07:01:56;99536.22;;;12.35;44.08
39435;BME280;66825;51.880;-0.518;2024-02-26T07:04:21;99666.66;;;13.18;43.76
39435;BME280;66825;51.880;-0.518;2024-02-26T07:06:47;99751.75;;;13.75;44.22
39435;BME280;66825;51.880;-0.518;2024-02-26T07:09:13;99740.97;;;13.70;44.18
39435;BME280;66825;51.880;-0.518;2024-02-26T07:11:39;99757.31;;;13.84;43.94
39435;BME280;66825;51.880;-0.518;2024-02-26T07:14:08;99764.56;;;13.88;44.17
39435;BME280;66825;51.880;-0.518;2024-02-26T07:16:33;99567.16;;;12.72;43.85
39435;BME280;66825;51.880;-0.518;2024-02-26T07:18:59;99769.13;;;13.93;43.58
39435;BME280;66825;51.880;-0.518;2024-02-26T07:21:24;99744.09;;;13.82;43.41
39435;BME280;66825;51.880;-0.518;2024-02-26T07:23:50;99786.84;;;14.04;43.71
39435;BME280;66825;51.880;-0.518;2024-02-26T07:26:15;99763.63;;;13.98;43.83
39435;BME280;66825;51.880;-0.518;2024-02-26T07:28:42;99789.97;;;14.11;43.40
39435;BME280;66825;51.880;-0.518;2024-02-26T07:31:08;99752.88;;;13.93;43.68
39435;BME280;66825;51.880;-0.518;2024-02-26T07:33:33;99785.31;;;14.17;43.52
39435;BME280;66825;51.880;-0.518;2024-02-26T07:35:59;99706.47;;;13.61;43.25
39435;BME280;66825;51.880;-0.518;2024-02-26T07:38:24;99819.13;;;14.20;43.53
39435;BME280;66825;51.880;-0.518;2024-02-26T07:40:49;99808.44;;;14.28;43.78
39435;BME280;66825;51.880;-0.518;2024-02-26T07:43:15;99796.38;;;14.21;43.33
39435;BME280;66825;51.880;-0.518;2024-02-26T07:45:40;99813.84;;;14.28;43.45
39435;BME280;66825;51.880;-0.518;2024-02-26T07:48:06;99841.59;;;14.39;43.41
39435;BME280;66825;51.880;-0.518;2024-02-26T07:50:32;99794.53;;;14.16;43.67
39435;BME280;66825;51.880;-0.518;2024-02-26T07:52:57;99786.78;;;14.09;43.11
39435;BME280;66825;51.880;-0.518;2024-02-26T07:55:23;99811.75;;;14.25;43.20
39435;BME280;66825;51.880;-0.518;2024-02-26T07:57:49;99855.53;;;14.52;43.27
39435;BME280;66825;51.880;-0.518;2024-02-26T08:00:15;99868.50;;;14.55;43.29
39435;BME280;66825;51.880;-0.518;2024-02-26T08:02:42;99789.84;;;14.03;43.29
39435;BME280;66825;51.880;-0.518;2024-02-26T08:05:09;99791.16;;;14.05;42.91
39435;BME280;66825;51.880;-0.518;2024-02-26T08:07:34;99882.22;;;14.64;43.35
39435;BME280;66825;51.880;-0.518;2024-02-26T08:09:59;99877.03;;;14.67;43.25
39435;BME280;66825;51.880;-0.518;2024-02-26T08:12:25;99801.84;;;14.16;43.09
39435;BME280;66825;51.880;-0.518;2024-02-26T08:14:51;99882.69;;;14.71;42.94
39435;BME280;66825;51.880;-0.518;2024-02-26T08:17:16;99898.56;;;14.77;43.28
39435;BME280;66825;51.880;-0.518;2024-02-26T08:19:42;99716.38;;;13.66;42.96
39435;BME280;66825;51.880;-0.518;2024-02-26T08:22:07;99902.44;;;14.90;43.21
39435;BME280;66825;51.880;-0.518;2024-02-26T08:24:33;99903.19;;;14.96;43.01
39435;BME280;66825;51.880;-0.518;2024-02-26T08:26:58;99894.53;;;14.94;43.09
39435;BME280;66825;51.880;-0.518;2024-02-26T08:29:24;99885.59;;;14.93;43.06
39435;BME280;66825;51.880;-0.518;2024-02-26T08:31:49;99921.00;;;15.16;42.70
39435;BME280;66825;51.880;-0.518;2024-02-26T08:34:15;99813.50;;;14.54;42.92
39435;BME280;66825;51.880;-0.518;2024-02-26T08:36:40;99813.13;;;14.61;42.92
39435;BME280;66825;51.880;-0.518;2024-02-26T08:39:08;99926.41;;;15.35;43.05
39435;BME280;66825;51.880;-0.518;2024-02-26T08:41:34;99916.88;;;15.38;42.84
39435;BME280;66825;51.880;-0.518;2024-02-26T08:43:59;99934.91;;;15.48;42.85
39435;BME280;66825;51.880;-0.518;2024-02-26T08:46:25;99854.63;;;14.95;42.72
39435;BME280;66825;51.880;-0.518;2024-02-26T08:48:50;99944.78;;;15.57;42.64
39435;BME280;66825;51.880;-0.518;2024-02-26T08:51:16;99938.16;;;15.64;42.50
39435;BME280;66825;51.880;-0.518;2024-02-26T08:53:42;99931.50;;;15.56;42.65
39435;BME280;66825;51.880;-0.518;2024-02-26T08:56:07;99875.03;;;15.25;42.78
39435;BME280;66825;51.880;-0.518;2024-02-26T08:58:33;99962.81;;;15.81;42.59
39435;BME280;66825;51.880;-0.518;2024-02-26T09:00:58;99965.78;;;15.85;42.49
39435;BME280;66825;51.880;-0.518;2024-02-26T09:03:24;99871.63;;;15.33;42.61
39435;BME280;66825;51.880;-0.518;2024-02-26T09:05:49;99914.09;;;15.57;42.58
39435;BME280;66825;51.880;-0.518;2024-02-26T09:08:15;99975.53;;;16.00;42.75
39435;BME280;66825;51.880;-0.518;2024-02-26T09:10:41;99978.47;;;16.03;42.59
39435;BME280;66825;51.880;-0.518;2024-02-26T09:13:06;99878.06;;;15.37;42.84
39435;BME280;66825;51.880;-0.518;2024-02-26T09:15:32;99985.91;;;16.12;42.91
39435;BME280;66825;51.880;-0.518;2024-02-26T09:17:58;99994.78;;;16.17;42.93
39435;BME280;66825;51.880;-0.518;2024-02-26T09:20:23;100000.13;;;16.23;42.94
39435;BME280;66825;51.880;-0.518;2024-02-26T09:22:49;99998.41;;;16.27;42.75
39435;BME280;66825;51.880;-0.518;2024-02-26T09:25:16;99983.03;;;16.22;43.18
39435;BME280;66825;51.880;-0.518;2024-02-26T09:27:42;99897.94;;;15.66;43.21
39435;BME280;66825;51.880;-0.518;2024-02-26T09:30:12;100023.59;;;16.46;43.26
39435;BME280;66825;51.880;-0.518;2024-02-26T09:32:38;100015.13;;;16.48;43.31
39435;BME280;66825;51.880;-0.518;2024-02-26T09:35:04;100033.66;;;16.60;43.46
39435;BME280;66825;51.880;-0.518;2024-02-26T09:37:29;100017.53;;;16.63;42.92
39435;BME280;66825;51.880;-0.518;2024-02-26T09:39:55;99984.59;;;16.51;42.64
39435;BME280;66825;51.880;-0.518;2024-02-26T09:42:21;99949.38;;;16.18;42.90
39435;BME280;66825;51.880;-0.518;2024-02-26T09:44:51;100025.69;;;16.77;42.90
39435;BME280;66825;51.880;-0.518;2024-02-26T09:47:19;100025.16;;;16.75;42.92
39435;BME280;66825;51.880;-0.518;2024-02-26T09:49:47;99996.56;;;16.64;42.95
39435;BME280;66825;51.880;-0.518;2024-02-26T09:52:14;100040.56;;;16.94;43.44
39435;BME280;66825;51.880;-0.518;2024-02-26T09:54:41;99999.19;;;16.69;43.52
39435;BME280;66825;51.880;-0.518;2024-02-26T09:57:09;100065.56;;;17.10;43.33
39435;BME280;66825;51.880;-0.518;2024-02-26T09:59:41;100027.06;;;17.03;43.52
39435;BME280;66825;51.880;-0.518;2024-02-26T10:02:12;100060.38;;;17.22;43.49
39435;BME280;66825;51.880;-0.518;2024-02-26T10:04:40;100031.28;;;17.09;43.66
39435;BME280;66825;51.880;-0.518;2024-02-26T10:07:10;100071.72;;;17.38;43.36
39435;BME280;66825;51.880;-0.518;2024-02-26T10:09:35;100068.06;;;17.43;43.37
39435;BME280;66825;51.880;-0.518;2024-02-26T10:12:01;99972.75;;;16.83;43.05
39435;BME280;66825;51.880;-0.518;2024-02-26T10:14:27;99992.88;;;16.96;43.54
39435;BME280;66825;51.880;-0.518;2024-02-26T10:16:52;100083.56;;;17.56;43.43
39435;BME280;66825;51.880;-0.518;2024-02-26T10:19:25;100062.13;;;17.41;43.08
39435;BME280;66825;51.880;-0.518;2024-02-26T10:21:58;100021.16;;;17.23;43.47
39435;BME280;66825;51.880;-0.518;2024-02-26T10:24:25;100013.31;;;17.22;43.12
39435;BME280;66825;51.880;-0.518;2024-02-26T10:26:51;100111.31;;;17.81;42.91
39435;BME280;66825;51.880;-0.518;2024-02-26T10:29:18;100087.84;;;17.71;43.22
39435;BME280;66825;51.880;-0.518;2024-02-26T10:31:44;100109.28;;;17.87;43.05
39435;BME280;66825;51.880;-0.518;2024-02-26T10:34:10;100116.91;;;17.99;42.59
39435;BME280;66825;51.880;-0.518;2024-02-26T10:36:36;100106.84;;;17.85;42.94
39435;BME280;66825;51.880;-0.518;2024-02-26T10:39:05;100107.34;;;17.87;42.60
39435;BME280;66825;51.880;-0.518;2024-02-26T10:41:32;100120.44;;;17.99;42.43
39435;BME280;66825;51.880;-0.518;2024-02-26T10:43:58;100077.88;;;17.67;42.17
39435;BME280;66825;51.880;-0.518;2024-02-26T10:46:25;100125.16;;;18.07;42.39
39435;BME280;66825;51.880;-0.518;2024-02-26T10:48:51;100127.13;;;18.16;42.06
39435;BME280;66825;51.880;-0.518;2024-02-26T10:51:28;100078.59;;;17.81;42.03
39435;BME280;66825;51.880;-0.518;2024-02-26T10:53:58;100108.03;;;17.93;41.78
39435;BME280;66825;51.880;-0.518;2024-02-26T10:56:26;100167.00;;;18.34;41.81
39435;BME280;66825;51.880;-0.518;2024-02-26T10:58:55;100079.41;;;17.82;41.75
39435;BME280;66825;51.880;-0.518;2024-02-26T11:01:21;100164.94;;;18.40;41.78
39435;BME280;66825;51.880;-0.518;2024-02-26T11:03:50;100166.25;;;18.42;41.66
39435;BME280;66825;51.880;-0.518;2024-02-26T11:06:16;100169.47;;;18.45;41.71
39435;BME280;66825;51.880;-0.518;2024-02-26T11:08:43;100161.22;;;18.36;41.54
39435;BME280;66825;51.880;-0.518;2024-02-26T11:11:09;100178.63;;;18.49;41.88
39435;BME280;66825;51.880;-0.518;2024-02-26T11:13:38;100096.00;;;17.94;41.85
39435;BME280;66825;51.880;-0.518;2024-02-26T11:16:06;100189.91;;;18.56;41.97
39435;BME280;66825;51.880;-0.518;2024-02-26T11:18:32;100183.31;;;18.57;42.25
39435;BME280;66825;51.880;-0.518;2024-02-26T11:20:59;100186.41;;;18.64;41.71
39435;BME280;66825;51.880;-0.518;2024-02-26T11:23:25;100187.66;;;18.58;41.58
39435;BME280;66825;51.880;-0.518;2024-02-26T11:25:52;100107.00;;;18.03;41.75
39435;BME280;66825;51.880;-0.518;2024-02-26T11:28:20;100210.56;;;18.80;41.43
39435;BME280;66825;51.880;-0.518;2024-02-26T11:30:48;100203.34;;;18.84;41.08
39435;BME280;66825;51.880;-0.518;2024-02-26T11:33:14;100157.63;;;18.49;40.96
39435;BME280;66825;51.880;-0.518;2024-02-26T11:35:40;100119.16;;;18.28;41.08
39435;BME280;66825;51.880;-0.518;2024-02-26T11:38:06;100217.72;;;18.98;40.69
39435;BME280;66825;51.880;-0.518;2024-02-26T11:40:33;100191.13;;;18.81;40.95
39435;BME280;66825;51.880;-0.518;2024-02-26T11:43:04;100211.47;;;18.98;40.91
39435;BME280;66825;51.880;-0.518;2024-02-26T11:48:22;100144.78;;;18.50;40.73
39435;BME280;66825;51.880;-0.518;2024-02-26T11:50:50;100229.81;;;19.06;40.59
39435;BME280;66825;51.880;-0.518;2024-02-26T11:56:13;100248.47;;;19.13;40.67
39435;BME280;66825;51.880;-0.518;2024-02-26T11:58:45;100245.88;;;19.08;40.86
39435;BME280;66825;51.880;-0.518;2024-02-26T12:01:36;100252.97;;;19.17;40.72
39435;BME280;66825;51.880;-0.518;2024-02-26T12:04:04;100175.63;;;18.59;40.48
39435;BME280;66825;51.880;-0.518;2024-02-26T12:06:31;100258.94;;;19.19;40.72
39435;BME280;66825;51.880;-0.518;2024-02-26T12:08:56;100254.91;;;19.17;40.95
39435;BME280;66825;51.880;-0.518;2024-02-26T12:11:22;100276.00;;;19.25;40.79
39435;BME280;66825;51.880;-0.518;2024-02-26T12:13:47;100276.50;;;19.27;40.74
39435;BME280;66825;51.880;-0.518;2024-02-26T12:16:37;100259.75;;;19.20;40.68
39435;BME280;66825;51.880;-0.518;2024-02-26T12:19:08;100192.75;;;18.82;40.67
39435;BME280;66825;51.880;-0.518;2024-02-26T12:21:35;100271.47;;;19.20;40.55
39435;BME280;66825;51.880;-0.518;2024-02-26T12:24:21;100285.16;;;19.29;41.02
39435;BME280;66825;51.880;-0.518;2024-02-26T12:26:47;100284.53;;;19.32;41.09
39435;BME280;66825;51.880;-0.518;2024-02-26T12:29:12;100253.13;;;19.12;40.54
39435;BME280;66825;51.880;-0.518;2024-02-26T12:31:39;100264.56;;;19.23;40.43
39435;BME280;66825;51.880;-0.518;2024-02-26T12:34:06;100214.09;;;18.80;40.41
39435;BME280;66825;51.880;-0.518;2024-02-26T12:36:36;100293.88;;;19.40;39.94
39435;BME280;66825;51.880;-0.518;2024-02-26T12:39:04;100284.53;;;19.32;39.91
39435;BME280;66825;51.880;-0.518;2024-02-26T12:41:34;100315.09;;;19.43;40.27
39435;BME280;66825;51.880;-0.518;2024-02-26T12:44:00;100322.47;;;19.43;40.59
39435;BME280;66825;51.880;-0.518;2024-02-26T12:46:25;100316.72;;;19.44;39.51
39435;BME280;66825;51.880;-0.518;2024-02-26T12:48:51;100297.72;;;19.39;39.59